KSEA/SEA METAR and TAF weather

Enter ICAO airport designator
Station Type Date Time Source
KSEA METAR 2021/08/02 01:53 UTC NOAA

KSEA 020153Z 22006KT 10SM SCT250 26/14 A3007 RMK AO2 SLP186 T02560144


Station Type Date Time Source
KSEA Decoded METAR 2021/08/02 01:53 UTC NOAA

SEATTLE-TACOMA INTERNATIONAL AIRPORT , WA, United States (KSEA) 47-27N 122-19W 136M
Aug 01, 2021 - 09:53 PM EDT / 2021.08.02 0153 UTC
Wind: from the SW (220 degrees) at 7 MPH (6 KT):0
Visibility: 10 mile(s):0
Sky conditions: partly cloudy
Temperature: 78.1 F (25.6 C)
Dew Point: 57.9 F (14.4 C)
Relative Humidity: 49%
Pressure (altimeter): 30.07 in. Hg (1018 hPa)
ob: KSEA 020153Z 22006KT 10SM SCT250 26/14 A3007 RMK AO2 SLP186 T02560144
cycle: 2

Station Type Date Time Source
KSEA TAF 2021/08/01 21:03 UTC NOAA

TAF
AMD KSEA 012100Z 0121/0224 24005KT P6SM BKN150
FM020000 VRB04KT P6SM SCT150
FM022200 33006KT P6SM SKC

Example: see airport list